Time;durP1;ratioP1;P1;durP2;ratioP2;P2;SDS_P1;SDS_P2;PMS_P1;PMS_P2;Temp;Humidity;BMP_temperature;BMP_pressure;BME280_temperature;BME280_humidity;BME280_pressure;Samples;Min_cycle;Max_cycle;Signal;HPM_P1;HPM_P2
2022/05/28 00:01:05;;;;;;;92.97;52.83;;;19.70;58.60;;;;;;4911694;28;94386;-40
2022/05/28 00:03:31;;;;;;;95.63;53.22;;;19.70;58.80;;;;;;4916888;28;95204;-42
2022/05/28 00:05:57;;;;;;;93.63;53.05;;;19.70;59.10;;;;;;4916933;28;98702;-40
2022/05/28 00:08:24;;;;;;;93.20;52.88;;;19.70;58.70;;;;;;4920497;28;95807;-40
2022/05/28 00:10:50;;;;;;;94.18;53.10;;;19.70;59.20;;;;;;4916947;28;95027;-41
2022/05/28 00:13:15;;;;;;;94.45;52.95;;;19.70;58.90;;;;;;4927342;28;95206;-40
2022/05/28 00:15:44;;;;;;;95.13;53.35;;;19.70;58.70;;;;;;4923162;28;95307;-40
2022/05/28 00:18:10;;;;;;;94.25;53.17;;;19.70;59.20;;;;;;4919730;28;100124;-42
2022/05/28 00:20:36;;;;;;;95.80;53.65;;;19.70;59.20;;;;;;4923035;28;97908;-40
2022/05/28 00:23:02;;;;;;;95.05;53.30;;;19.70;59.10;;;;;;4918148;28;95042;-42
2022/05/28 00:25:28;;;;;;;93.80;53.05;;;19.70;58.70;;;;;;4907622;28;94491;-40
2022/05/28 00:27:54;;;;;;;94.60;53.28;;;19.70;58.80;;;;;;4926260;28;95695;-40
2022/05/28 00:30:20;;;;;;;94.97;53.53;;;19.70;59.10;;;;;;4924450;28;94880;-40
2022/05/28 00:32:46;;;;;;;95.78;53.63;;;19.70;59.20;;;;;;4924392;28;97801;-43
2022/05/28 00:35:18;;;;;;;94.55;53.55;;;19.60;59.20;;;;;;4919543;28;96173;-40
2022/05/28 00:37:45;;;;;;;94.13;53.22;;;19.70;58.70;;;;;;4917165;28;95307;-40
2022/05/28 00:40:21;;;;;;;93.70;52.90;;;19.60;58.80;;;;;;4909286;28;97253;-40
2022/05/28 00:42:47;;;;;;;94.72;53.33;;;19.60;59.20;;;;;;4909308;28;96769;-40
2022/05/28 00:45:13;;;;;;;95.03;53.60;;;19.60;59.00;;;;;;4915230;28;95256;-41
2022/05/28 00:47:51;;;;;;;93.75;53.28;;;19.60;59.20;;;;;;4911803;28;96249;-42
2022/05/28 00:50:18;;;;;;;94.93;53.30;;;19.60;59.30;;;;;;4915411;28;94571;-41
2022/05/28 00:52:44;;;;;;;93.63;52.88;;;19.60;59.10;;;;;;4910910;28;95895;-40
2022/05/28 00:55:11;;;;;;;94.13;53.22;;;19.60;59.40;;;;;;4909134;28;98341;-41
2022/05/28 00:57:40;;;;;;;94.32;53.00;;;19.60;58.90;;;;;;4915686;28;105959;-40
2022/05/28 01:00:12;;;;;;;95.10;53.03;;;19.60;58.80;;;;;;4919343;28;97275;-41
2022/05/28 01:02:42;;;;;;;95.22;53.17;;;19.60;59.20;;;;;;4915208;28;97237;-40
2022/05/28 01:05:14;;;;;;;94.17;53.17;;;19.60;59.40;;;;;;4905114;28;95695;-40
2022/05/28 01:07:49;;;;;;;92.85;53.05;;;19.60;59.00;;;;;;4912661;28;96633;-44
2022/05/28 01:10:17;;;;;;;94.78;53.40;;;19.60;59.20;;;;;;4909804;28;99879;-40
2022/05/28 01:12:43;;;;;;;95.65;53.28;;;19.60;58.90;;;;;;4911136;28;98725;-40
2022/05/28 01:15:11;;;;;;;95.60;53.42;;;19.60;59.30;;;;;;4919701;28;95585;-41
2022/05/28 01:17:39;;;;;;;93.65;53.00;;;19.60;59.10;;;;;;4919054;28;101060;-40
2022/05/28 01:20:16;;;;;;;93.75;53.17;;;19.60;59.00;;;;;;4909319;28;96548;-44
2022/05/28 01:23:15;;;;;;;95.35;53.00;;;19.50;59.30;;;;;;4916033;28;96908;-40
2022/05/28 01:25:44;;;;;;;94.65;53.35;;;19.50;59.20;;;;;;4906527;28;97199;-40
2022/05/28 01:28:17;;;;;;;93.32;52.90;;;19.50;59.60;;;;;;4915104;28;95286;-40
2022/05/28 01:30:44;;;;;;;93.28;53.25;;;19.50;59.30;;;;;;4913693;28;97514;-40
2022/05/28 01:33:12;;;;;;;93.72;52.92;;;19.50;59.20;;;;;;4906986;28;96003;-40
2022/05/28 01:35:38;;;;;;;92.03;52.85;;;19.50;59.30;;;;;;4911683;28;96181;-42
2022/05/28 01:38:06;;;;;;;92.88;53.03;;;19.50;59.20;;;;;;4905302;28;95998;-41
2022/05/28 01:40:34;;;;;;;91.97;52.85;;;19.40;59.30;;;;;;4919024;28;95723;-41
2022/05/28 01:43:05;;;;;;;92.93;53.28;;;19.50;59.50;;;;;;4919570;28;95947;-41
2022/05/28 01:45:32;;;;;;;92.07;52.95;;;19.40;59.40;;;;;;4919356;28;95298;-39
2022/05/28 01:48:02;;;;;;;91.88;52.95;;;19.40;59.30;;;;;;4903100;28;97862;-40
2022/05/28 01:50:32;;;;;;;94.57;53.35;;;19.40;59.40;;;;;;4913832;28;95526;-40
2022/05/28 01:53:02;;;;;;;92.85;53.00;;;19.40;59.40;;;;;;4912650;28;95119;-40
2022/05/28 01:55:29;;;;;;;93.40;52.95;;;19.40;59.00;;;;;;4908920;28;96819;-41
2022/05/28 01:57:55;;;;;;;92.07;53.03;;;19.40;59.30;;;;;;4912277;28;100805;-41
2022/05/28 02:00:20;;;;;;;92.10;53.03;;;19.40;60.00;;;;;;4911317;28;97348;-39
2022/05/28 02:02:46;;;;;;;91.57;52.75;;;19.30;59.10;;;;;;4906776;28;96094;-40
2022/05/28 02:05:13;;;;;;;94.60;53.00;;;19.30;59.20;;;;;;4901722;28;95776;-40
2022/05/28 02:07:38;;;;;;;92.38;52.88;;;19.30;59.60;;;;;;4914297;28;96518;-42
2022/05/28 02:10:15;;;;;;;96.20;53.35;;;19.30;59.20;;;;;;4913354;28;95177;-40
2022/05/28 02:13:07;;;;;;;91.50;52.90;;;19.30;59.70;;;;;;4914797;28;96610;-40
2022/05/28 02:15:42;;;;;;;92.35;52.72;;;19.20;59.40;;;;;;4912956;28;97023;-40
2022/05/28 02:18:21;;;;;;;93.85;53.40;;;19.20;59.70;;;;;;4915659;28;96324;-40
2022/05/28 02:21:07;;;;;;;91.53;52.90;;;19.20;59.50;;;;;;4912812;28;95204;-40
2022/05/28 02:24:01;;;;;;;90.22;52.28;;;19.20;59.40;;;;;;4911792;28;96158;-40
2022/05/28 02:26:41;;;;;;;94.00;53.20;;;19.20;59.90;;;;;;4913468;28;96316;-41
2022/05/28 02:29:07;;;;;;;92.82;53.55;;;19.20;59.80;;;;;;4908333;28;97008;-40
2022/05/28 02:31:34;;;;;;;96.65;53.28;;;19.20;59.70;;;;;;4906713;28;100397;-40
2022/05/28 02:34:01;;;;;;;91.88;52.83;;;19.20;59.50;;;;;;4911492;28;96713;-42
2022/05/28 02:36:29;;;;;;;96.18;53.25;;;19.20;59.10;;;;;;4923705;28;100401;-41
2022/05/28 02:38:54;;;;;;;97.25;53.88;;;19.20;59.60;;;;;;4913740;28;95813;-41
2022/05/28 02:41:21;;;;;;;92.97;53.47;;;19.20;59.40;;;;;;4916830;28;95767;-45
2022/05/28 02:43:47;;;;;;;90.32;52.80;;;19.20;59.40;;;;;;4915557;28;96572;-40
2022/05/28 02:46:13;;;;;;;93.85;53.72;;;19.10;59.50;;;;;;4919519;28;96128;-42
2022/05/28 02:48:39;;;;;;;92.60;53.42;;;19.10;59.70;;;;;;4919448;28;95187;-42
2022/05/28 02:51:11;;;;;;;92.45;53.35;;;19.10;59.60;;;;;;4916163;28;95571;-40
2022/05/28 02:53:37;;;;;;;;;;;19.10;60.10;;;;;;4906434;28;95471;-39
2022/05/28 02:56:03;;;;;;;92.15;53.42;;;19.10;59.40;;;;;;4915954;28;95040;-40
2022/05/28 02:58:30;;;;;;;95.90;53.80;;;19.10;59.80;;;;;;4908638;28;97259;-40
2022/05/28 03:00:55;;;;;;;91.47;53.10;;;19.10;59.80;;;;;;4917336;28;96786;-40
2022/05/28 03:03:21;;;;;;;93.55;53.42;;;19.10;59.80;;;;;;4917836;28;98853;-40
2022/05/28 03:05:49;;;;;;;93.70;53.72;;;19.10;59.60;;;;;;4913162;28;96237;-39
2022/05/28 03:08:15;;;;;;;92.10;53.83;;;19.10;59.70;;;;;;4917029;28;96014;-43
2022/05/28 03:10:41;;;;;;;91.60;53.65;;;19.00;59.70;;;;;;4905137;28;95541;-39
2022/05/28 03:13:06;;;;;;;92.43;53.03;;;19.10;59.60;;;;;;4910155;28;101015;-40
2022/05/28 03:15:32;;;;;;;94.65;54.45;;;19.10;60.70;;;;;;4912206;28;94758;-39
2022/05/28 03:18:01;;;;;;;93.00;53.67;;;19.00;60.10;;;;;;4922691;28;95637;-42
2022/05/28 03:20:28;;;;;;;90.82;53.13;;;19.00;59.60;;;;;;4917720;28;94900;-42
2022/05/28 03:22:54;;;;;;;91.38;53.55;;;19.00;59.80;;;;;;4912622;28;95400;-42
2022/05/28 03:25:19;;;;;;;90.65;53.30;;;19.00;59.80;;;;;;4904521;28;95578;-40
2022/05/28 03:27:45;;;;;;;91.60;52.92;;;19.00;59.80;;;;;;4903760;28;96387;-40
2022/05/28 03:30:11;;;;;;;93.10;53.40;;;19.00;59.70;;;;;;4908484;28;97360;-41
2022/05/28 03:32:37;;;;;;;93.40;53.33;;;19.00;59.80;;;;;;4914690;28;100320;-40
2022/05/28 03:35:03;;;;;;;92.32;53.80;;;19.00;59.70;;;;;;4909856;28;97114;-40
2022/05/28 03:37:29;;;;;;;92.97;53.80;;;19.00;59.80;;;;;;4912673;28;94979;-41
2022/05/28 03:39:54;;;;;;;92.50;53.15;;;19.00;59.80;;;;;;4908080;28;102374;-40
2022/05/28 03:42:20;;;;;;;91.95;53.28;;;19.00;60.00;;;;;;4907672;28;95445;-40
2022/05/28 03:44:46;;;;;;;91.63;53.05;;;19.00;59.70;;;;;;4913114;28;96916;-43
2022/05/28 03:47:12;;;;;;;92.22;53.00;;;18.90;59.40;;;;;;4920387;28;96682;-40
2022/05/28 03:49:41;;;;;;;91.38;53.28;;;18.90;59.30;;;;;;4919971;28;96016;-43
2022/05/28 03:52:07;;;;;;;90.18;52.83;;;18.90;59.30;;;;;;4913715;28;102586;-40
2022/05/28 03:54:33;;;;;;;91.07;53.33;;;18.90;59.90;;;;;;4905300;28;99308;-41
2022/05/28 03:57:11;;;;;;;92.45;52.85;;;18.80;59.80;;;;;;4917008;28;95792;-40
2022/05/28 03:59:36;;;;;;;94.80;53.03;;;18.90;60.30;;;;;;4911068;28;95295;-41
2022/05/28 04:02:03;;;;;;;90.18;52.80;;;18.80;59.50;;;;;;4915208;28;95412;-40
2022/05/28 04:04:28;;;;;;;92.05;53.42;;;18.90;59.90;;;;;;4922131;28;97929;-42
2022/05/28 04:06:54;;;;;;;93.45;53.78;;;18.80;59.90;;;;;;4916631;28;95243;-42
2022/05/28 04:09:20;;;;;;;91.35;53.05;;;18.90;59.80;;;;;;4910292;28;97354;-43
2022/05/28 04:11:45;;;;;;;92.68;53.40;;;18.80;60.00;;;;;;4917175;28;95378;-42
2022/05/28 04:14:11;;;;;;;90.20;52.80;;;18.90;60.10;;;;;;4910400;28;96813;-42
2022/05/28 04:16:37;;;;;;;92.90;53.17;;;18.90;59.70;;;;;;4908086;28;97003;-42
2022/05/28 04:19:03;;;;;;;92.25;52.70;;;18.90;59.60;;;;;;4913813;28;101049;-40
2022/05/28 04:21:29;;;;;;;93.03;53.15;;;18.90;59.30;;;;;;4919363;28;96751;-42
2022/05/28 04:23:55;;;;;;;90.50;52.75;;;18.90;60.00;;;;;;4910462;28;95704;-40
2022/05/28 04:26:20;;;;;;;89.93;53.03;;;18.90;59.50;;;;;;4916004;28;95727;-42
2022/05/28 04:28:46;;;;;;;88.72;52.38;;;18.90;59.50;;;;;;4913950;28;95882;-42
2022/05/28 04:31:12;;;;;;;89.75;52.63;;;18.90;59.60;;;;;;4913485;28;95438;-40
2022/05/28 04:33:37;;;;;;;91.32;53.45;;;18.90;60.00;;;;;;4913355;28;94966;-40
2022/05/28 04:36:03;;;;;;;91.65;53.03;;;19.00;59.80;;;;;;4911042;28;96786;-40
2022/05/28 04:38:29;;;;;;;90.20;52.70;;;19.00;59.60;;;;;;4908623;28;95568;-41
2022/05/28 04:40:55;;;;;;;90.95;52.90;;;19.00;59.00;;;;;;4910361;28;97627;-40
2022/05/28 04:43:20;;;;;;;91.25;52.47;;;19.00;59.50;;;;;;4912564;28;98041;-40
2022/05/28 04:45:46;;;;;;;90.75;52.72;;;19.00;59.20;;;;;;4920912;28;101257;-40
2022/05/28 04:48:12;;;;;;;89.95;52.65;;;19.00;59.30;;;;;;4914577;28;96399;-42
2022/05/28 04:50:38;;;;;;;94.63;52.85;;;19.00;58.80;;;;;;4925270;28;95263;-40
2022/05/28 04:53:04;;;;;;;90.38;52.50;;;19.00;58.70;;;;;;4914210;28;95953;-40
2022/05/28 04:55:31;;;;;;;89.25;52.30;;;19.00;58.70;;;;;;4903779;28;96277;-42
2022/05/28 04:57:57;;;;;;;90.13;52.72;;;19.00;58.50;;;;;;4924688;28;95028;-42
2022/05/28 05:00:25;;;;;;;90.38;52.55;;;18.90;59.10;;;;;;4913570;28;95916;-40
2022/05/28 05:02:51;;;;;;;89.45;52.63;;;19.00;59.30;;;;;;4914328;28;95852;-42
2022/05/28 05:05:18;;;;;;;89.90;52.53;;;19.00;59.30;;;;;;4912926;28;99449;-40
2022/05/28 05:07:43;;;;;;;89.80;52.47;;;19.10;59.10;;;;;;4907305;28;95300;-40
2022/05/28 05:10:10;;;;;;;90.13;52.72;;;19.10;58.70;;;;;;4914187;28;96606;-40
2022/05/28 05:12:36;;;;;;;88.88;52.25;;;19.10;58.50;;;;;;4917985;28;95472;-40
2022/05/28 05:15:02;;;;;;;90.63;52.53;;;19.10;59.10;;;;;;4909125;28;95111;-41
2022/05/28 05:17:27;;;;;;;90.70;52.58;;;19.10;58.80;;;;;;4911481;28;96190;-41
2022/05/28 05:19:53;;;;;;;90.40;52.53;;;19.10;59.10;;;;;;4903693;28;98217;-41
2022/05/28 05:22:19;;;;;;;91.50;52.47;;;19.10;59.00;;;;;;4912228;28;96329;-44
2022/05/28 05:24:45;;;;;;;90.80;52.65;;;19.20;58.60;;;;;;4914114;28;95740;-43
2022/05/28 05:27:11;;;;;;;88.97;52.55;;;19.20;58.80;;;;;;4906377;28;96946;-42
2022/05/28 05:29:38;;;;;;;89.00;52.33;;;19.20;58.30;;;;;;4906792;28;97638;-41
2022/05/28 05:32:04;;;;;;;89.18;52.35;;;19.20;58.80;;;;;;4912947;28;96070;-42
2022/05/28 05:34:29;;;;;;;88.35;52.35;;;19.20;58.10;;;;;;4913148;28;95915;-40
2022/05/28 05:36:55;;;;;;;89.00;52.22;;;19.30;58.50;;;;;;4915092;28;95142;-42
2022/05/28 05:39:21;;;;;;;89.43;52.58;;;19.30;58.30;;;;;;4913576;28;96188;-41
2022/05/28 05:41:46;;;;;;;90.35;52.25;;;19.40;57.80;;;;;;4924428;28;95920;-41
2022/05/28 05:44:13;;;;;;;91.07;52.50;;;19.40;58.40;;;;;;4924008;28;95010;-44
2022/05/28 05:46:41;;;;;;;89.97;52.22;;;19.40;58.10;;;;;;4914599;28;95057;-42
2022/05/28 05:49:07;;;;;;;91.45;52.58;;;19.40;58.30;;;;;;4925489;28;95004;-40
2022/05/28 05:51:41;;;;;;;89.63;52.45;;;19.50;57.70;;;;;;4920796;28;95347;-43
2022/05/28 05:54:07;;;;;;;91.35;52.88;;;19.50;57.70;;;;;;4913705;28;97544;-41
2022/05/28 05:56:33;;;;;;;89.75;52.20;;;19.50;57.70;;;;;;4918191;28;96474;-42
2022/05/28 05:58:58;;;;;;;90.50;52.60;;;19.50;57.80;;;;;;4909521;28;95623;-41
2022/05/28 06:01:25;;;;;;;90.72;52.63;;;19.60;57.40;;;;;;4917412;28;95970;-41
2022/05/28 06:03:51;;;;;;;92.22;52.75;;;19.60;57.20;;;;;;4919884;28;95318;-40
2022/05/28 06:06:18;;;;;;;91.35;52.90;;;19.50;57.30;;;;;;4921711;28;95442;-40
2022/05/28 06:08:45;;;;;;;92.13;52.53;;;19.50;57.30;;;;;;4914627;28;96034;-42
2022/05/28 06:11:11;;;;;;;92.25;52.55;;;19.60;57.20;;;;;;4913462;28;96137;-41
2022/05/28 06:13:37;;;;;;;90.47;52.45;;;19.50;57.00;;;;;;4917550;28;96759;-40
2022/05/28 06:16:03;;;;;;;92.70;52.83;;;19.50;56.70;;;;;;4912153;28;95302;-42
2022/05/28 06:18:31;;;;;;;90.88;52.83;;;19.60;56.90;;;;;;4913016;28;97052;-42
2022/05/28 06:20:58;;;;;;;90.82;52.58;;;19.60;56.50;;;;;;4918247;28;95231;-42
2022/05/28 06:23:24;;;;;;;93.07;52.97;;;19.60;56.90;;;;;;4906506;28;96757;-42
2022/05/28 06:25:50;;;;;;;90.57;52.67;;;19.70;56.80;;;;;;4908345;28;95416;-40
2022/05/28 06:28:15;;;;;;;91.50;52.85;;;19.70;56.80;;;;;;4907457;28;95563;-40
2022/05/28 06:30:43;;;;;;;91.78;52.72;;;19.80;56.40;;;;;;4911420;28;96058;-41
2022/05/28 06:33:09;;;;;;;92.60;52.90;;;19.90;56.70;;;;;;4904738;28;99258;-41
2022/05/28 06:35:35;;;;;;;91.13;52.85;;;19.90;56.60;;;;;;4906679;28;98249;-41
2022/05/28 06:38:01;;;;;;;91.78;52.83;;;19.90;55.70;;;;;;4915881;28;95849;-41
2022/05/28 06:40:27;;;;;;;92.97;53.17;;;19.90;56.10;;;;;;4915803;28;96193;-42
2022/05/28 06:42:55;;;;;;;92.75;52.97;;;19.90;56.00;;;;;;4908706;28;97754;-42
2022/05/28 06:45:21;;;;;;;92.13;52.72;;;19.80;56.70;;;;;;4914227;28;96305;-41
2022/05/28 06:47:46;;;;;;;91.97;52.67;;;19.80;56.40;;;;;;4907762;28;97115;-42
2022/05/28 06:52:59;;;;;;;91.80;52.88;;;19.90;56.00;;;;;;4921419;28;94999;-42
2022/05/28 06:55:25;;;;;;;91.82;53.03;;;19.90;56.10;;;;;;4913722;28;95609;-41
2022/05/28 06:57:51;;;;;;;92.15;52.92;;;19.80;55.90;;;;;;4914571;28;96605;-41
2022/05/28 07:00:17;;;;;;;90.68;52.63;;;19.90;56.50;;;;;;4918157;28;96013;-43
2022/05/28 07:02:43;;;;;;;91.88;53.00;;;19.80;56.30;;;;;;4915791;28;97771;-41
2022/05/28 07:05:12;;;;;;;92.55;52.88;;;19.80;56.70;;;;;;4908758;28;95059;-42
2022/05/28 07:07:37;;;;;;;92.93;52.83;;;19.80;56.40;;;;;;4910292;28;96388;-40
2022/05/28 07:10:05;;;;;;;90.03;52.55;;;19.80;56.70;;;;;;4901122;28;95719;-42
2022/05/28 07:12:30;;;;;;;94.78;52.90;;;19.90;56.50;;;;;;4909506;28;96042;-41
2022/05/28 07:14:56;;;;;;;92.93;52.80;;;19.80;56.40;;;;;;4904833;28;100563;-43
2022/05/28 07:17:22;;;;;;;91.28;52.65;;;19.80;56.80;;;;;;4914807;28;96777;-41
2022/05/28 07:19:49;;;;;;;90.90;52.75;;;19.80;56.90;;;;;;4901305;28;95153;-40
2022/05/28 07:22:15;;;;;;;91.65;53.13;;;19.80;56.70;;;;;;4905451;28;95866;-45
2022/05/28 07:24:40;;;;;;;91.53;52.80;;;19.80;56.40;;;;;;4916978;28;95126;-40
2022/05/28 07:27:06;;;;;;;91.25;52.80;;;19.80;56.80;;;;;;4909131;28;100006;-43
2022/05/28 07:29:32;;;;;;;91.38;52.95;;;19.80;56.60;;;;;;4913291;28;100606;-40
2022/05/28 07:31:57;;;;;;;89.57;52.33;;;19.90;56.90;;;;;;4907874;28;96735;-42
2022/05/28 07:34:23;;;;;;;89.95;52.72;;;19.90;57.10;;;;;;4924681;28;95058;-41
2022/05/28 07:36:49;;;;;;;91.22;52.75;;;19.90;57.00;;;;;;4914107;28;95454;-40
2022/05/28 07:39:15;;;;;;;92.65;52.95;;;19.90;56.80;;;;;;4913034;28;95968;-45
2022/05/28 07:41:41;;;;;;;89.40;52.47;;;19.90;56.50;;;;;;4907844;28;96594;-40
2022/05/28 07:44:07;;;;;;;89.65;52.47;;;19.90;56.50;;;;;;4916722;28;95247;-40
2022/05/28 07:46:33;;;;;;;92.63;52.72;;;19.90;56.80;;;;;;4921114;28;95145;-40
2022/05/28 07:49:01;;;;;;;89.32;52.25;;;19.90;57.10;;;;;;4909369;28;95352;-41
2022/05/28 07:51:27;;;;;;;91.03;52.72;;;20.00;57.00;;;;;;4898318;28;96378;-42
2022/05/28 07:53:53;;;;;;;92.50;53.00;;;20.10;56.70;;;;;;4908230;28;99356;-42
2022/05/28 07:56:19;;;;;;;91.07;52.88;;;20.00;56.00;;;;;;4902928;28;97101;-40
2022/05/28 07:58:46;;;;;;;90.55;52.53;;;20.00;56.30;;;;;;4911544;28;96119;-40
2022/05/28 08:01:26;;;;;;;92.55;52.80;;;20.00;56.30;;;;;;4912524;28;98212;-42
2022/05/28 08:03:53;;;;;;;89.82;52.63;;;20.00;56.40;;;;;;4907185;28;97200;-43
2022/05/28 08:06:19;;;;;;;92.75;53.45;;;20.10;56.40;;;;;;4909017;28;96401;-40
2022/05/28 08:08:46;;;;;;;96.88;56.95;;;20.20;56.20;;;;;;4907007;28;96521;-40
2022/05/28 08:11:13;;;;;;;96.22;56.90;;;20.20;56.80;;;;;;4903273;28;97253;-40
2022/05/28 08:13:39;;;;;;;98.97;57.42;;;20.30;55.80;;;;;;4911851;28;94656;-41
2022/05/28 08:16:04;;;;;;;98.07;58.10;;;20.30;55.30;;;;;;4905758;28;96125;-43
2022/05/28 08:18:30;;;;;;;98.45;59.08;;;20.30;56.20;;;;;;4905802;28;95730;-40
2022/05/28 08:23:43;;;;;;;98.60;58.90;;;20.40;56.40;;;;;;4899681;28;95449;-40
2022/05/28 08:26:10;;;;;;;101.10;59.05;;;20.40;56.50;;;;;;4891787;28;95489;-40
2022/05/28 08:28:38;;;;;;;98.20;57.95;;;20.50;55.60;;;;;;4903460;28;95926;-40
2022/05/28 08:31:04;;;;;;;101.30;58.47;;;20.50;55.20;;;;;;4902830;28;95519;-40
2022/05/28 08:33:30;;;;;;;99.07;58.67;;;20.60;55.90;;;;;;4910155;28;96967;-41
2022/05/28 08:35:56;;;;;;;97.95;57.40;;;20.70;55.70;;;;;;4910966;28;97898;-41
2022/05/28 08:38:23;;;;;;;97.20;57.28;;;20.80;55.20;;;;;;4917631;28;95966;-40
2022/05/28 08:41:00;;;;;;;97.93;57.03;;;20.70;54.70;;;;;;4913979;28;95026;-41
2022/05/28 08:43:34;;;;;;;98.18;57.50;;;20.80;55.50;;;;;;4924722;28;97244;-40
2022/05/28 08:46:01;;;;;;;97.45;57.70;;;20.80;55.40;;;;;;4924346;28;97216;-42
2022/05/28 08:48:39;;;;;;;99.03;57.42;;;20.80;55.70;;;;;;4920859;28;95973;-41
2022/05/28 08:51:09;;;;;;;98.97;57.25;;;20.80;55.90;;;;;;4916672;28;100984;-42
2022/05/28 08:53:45;;;;;;;96.00;56.75;;;20.80;55.70;;;;;;4900976;28;96053;-42
2022/05/28 08:56:15;;;;;;;96.97;56.25;;;20.80;55.10;;;;;;4912811;28;97273;-41
2022/05/28 08:58:42;;;;;;;98.65;57.30;;;20.80;54.60;;;;;;4913276;28;97674;-41
2022/05/28 09:01:17;;;;;;;98.80;56.47;;;20.90;54.30;;;;;;4899200;28;100786;-41
2022/05/28 09:03:46;;;;;;;98.55;56.90;;;21.00;54.10;;;;;;4911191;28;100206;-40
2022/05/28 09:06:23;;;;;;;96.88;56.17;;;21.00;53.80;;;;;;4907192;28;96211;-41
2022/05/28 09:08:54;;;;;;;96.32;55.80;;;21.10;54.30;;;;;;4911486;28;95509;-39
2022/05/28 09:11:33;;;;;;;;;;;21.00;53.80;;;;;;4902676;28;96980;-40
2022/05/28 09:14:22;;;;;;;95.00;55.25;;;21.00;54.70;;;;;;4915077;28;96635;-40
2022/05/28 09:16:51;;;;;;;96.15;55.60;;;21.00;53.70;;;;;;4913179;28;95444;-40
2022/05/28 09:19:25;;;;;;;96.55;56.15;;;21.00;53.90;;;;;;4913565;28;95567;-41
2022/05/28 09:21:51;;;;;;;97.10;55.33;;;21.10;54.00;;;;;;4915521;28;95784;-40
2022/05/28 09:24:20;;;;;;;97.82;55.28;;;21.10;53.70;;;;;;4909854;28;96321;-40
2022/05/28 09:27:22;;;;;;;97.07;55.65;;;21.10;53.20;;;;;;4907037;28;96239;-41
2022/05/28 09:30:14;;;;;;;97.53;55.92;;;21.20;53.40;;;;;;4907030;28;94818;-41
2022/05/28 09:32:58;;;;;;;96.72;55.67;;;21.20;54.40;;;;;;4913082;28;96355;-45
2022/05/28 09:35:45;;;;;;;96.63;55.35;;;21.30;54.50;;;;;;4910397;28;95161;-45
2022/05/28 09:38:24;;;;;;;96.15;55.42;;;21.30;53.40;;;;;;4900419;28;97496;-42
2022/05/28 09:41:00;;;;;;;96.03;55.58;;;21.20;53.60;;;;;;4901044;28;97907;-42
2022/05/28 09:43:58;;;;;;;95.25;55.20;;;21.20;54.70;;;;;;4900230;28;96800;-41
2022/05/28 09:46:44;;;;;;;98.13;55.45;;;21.20;54.60;;;;;;4924952;28;98164;-41
2022/05/28 09:49:15;;;;;;;94.80;55.20;;;21.30;54.90;;;;;;4921086;28;95419;-40
2022/05/28 09:52:04;;;;;;;96.50;55.10;;;21.30;54.10;;;;;;4918495;28;95239;-42
2022/05/28 09:54:33;;;;;;;97.50;55.22;;;21.30;53.10;;;;;;4924893;28;94732;-41
2022/05/28 09:57:09;;;;;;;96.03;55.03;;;21.30;53.30;;;;;;4922032;28;96525;-40
2022/05/28 09:59:49;;;;;;;97.53;55.63;;;21.30;54.20;;;;;;4920507;28;98018;-41
2022/05/28 10:02:40;;;;;;;96.28;55.13;;;21.40;54.80;;;;;;4923135;28;95516;-40
2022/05/28 10:05:16;;;;;;;97.00;55.50;;;21.40;54.10;;;;;;4925314;28;96732;-40
2022/05/28 10:07:47;;;;;;;99.15;56.03;;;21.50;54.10;;;;;;4926364;28;94796;-40
2022/05/28 10:10:31;;;;;;;98.75;55.75;;;21.70;54.30;;;;;;4918261;28;95524;-41
2022/05/28 10:13:13;;;;;;;97.60;55.35;;;21.80;53.80;;;;;;4919207;28;95459;-42
2022/05/28 10:15:46;;;;;;;97.22;55.42;;;21.80;52.20;;;;;;4921684;28;97667;-42
2022/05/28 10:18:19;;;;;;;98.72;55.38;;;21.80;52.30;;;;;;4921523;28;98233;-41
2022/05/28 10:21:10;;;;;;;96.97;55.55;;;21.80;53.10;;;;;;4921550;28;95301;-43
2022/05/28 10:23:39;;;;;;;96.47;55.53;;;21.80;53.10;;;;;;4915804;28;97853;-42
2022/05/28 10:26:10;;;;;;;98.18;55.55;;;21.90;53.60;;;;;;4915908;28;95122;-43
2022/05/28 10:28:51;;;;;;;98.15;55.42;;;21.90;52.70;;;;;;4927822;28;95352;-40
2022/05/28 10:31:22;;;;;;;;;;;22.00;52.40;;;;;;4926234;28;96287;-40
2022/05/28 10:33:48;;;;;;;96.40;54.60;;;22.00;52.20;;;;;;4923620;28;94747;-46
2022/05/28 10:36:19;;;;;;;97.88;55.28;;;21.90;52.30;;;;;;4919763;28;101910;-40
2022/05/28 10:38:46;;;;;;;96.82;55.20;;;21.80;52.70;;;;;;4923500;28;95351;-40
2022/05/28 10:41:25;;;;;;;96.93;55.53;;;21.80;53.50;;;;;;4923133;28;95410;-42
2022/05/28 10:43:51;;;;;;;95.97;54.88;;;21.70;53.50;;;;;;4920917;28;95217;-41
2022/05/28 10:46:28;;;;;;;98.97;54.83;;;21.80;53.00;;;;;;4921659;28;95456;-44
2022/05/28 10:49:36;;;;;;;97.40;55.25;;;21.80;51.60;;;;;;4920044;28;93996;-40
2022/05/28 10:52:21;;;;;;;98.18;54.92;;;21.90;52.40;;;;;;4934312;28;94774;-41
2022/05/28 10:55:07;;;;;;;97.53;54.95;;;22.00;52.20;;;;;;4920002;28;95542;-41
2022/05/28 10:58:14;;;;;;;98.18;55.15;;;22.00;52.90;;;;;;4913048;28;96488;-42
2022/05/28 11:00:59;;;;;;;96.20;54.72;;;22.00;52.60;;;;;;4921195;28;95516;-40
2022/05/28 11:03:43;;;;;;;97.63;55.33;;;21.90;52.30;;;;;;4920297;28;96824;-40
2022/05/28 11:06:29;;;;;;;97.28;55.25;;;21.90;52.60;;;;;;4930856;28;97346;-41
2022/05/28 11:09:25;;;;;;;96.07;55.53;;;21.90;51.60;;;;;;4918789;28;98752;-41
2022/05/28 11:12:35;;;;;;;97.25;55.00;;;22.00;53.20;;;;;;4921317;28;94650;-40
2022/05/28 11:15:32;;;;;;;98.63;55.80;;;22.10;53.00;;;;;;4914151;28;97294;-41
2022/05/28 11:18:17;;;;;;;96.65;54.92;;;22.20;52.60;;;;;;4926835;28;94719;-43
2022/05/28 11:21:09;;;;;;;96.57;55.08;;;22.30;51.90;;;;;;4900670;28;96072;-41
2022/05/28 11:23:46;;;;;;;99.20;55.40;;;22.20;51.10;;;;;;4907713;28;95011;-40
2022/05/28 11:27:08;;;;;;;97.45;55.47;;;22.20;51.00;;;;;;4900693;28;99233;-43
2022/05/28 11:30:14;;;;;;;97.55;55.35;;;22.20;51.70;;;;;;4897413;28;98228;-43
2022/05/28 11:32:52;;;;;;;94.25;54.47;;;22.20;52.70;;;;;;4903885;28;98982;-41
2022/05/28 11:35:35;;;;;;;97.78;55.33;;;22.10;51.20;;;;;;4914248;28;97117;-40
2022/05/28 11:38:22;;;;;;;97.10;54.92;;;22.10;51.50;;;;;;4909445;28;95348;-41
2022/05/28 11:41:00;;;;;;;97.50;55.38;;;22.10;50.90;;;;;;4896561;28;101848;-42
2022/05/28 11:43:28;;;;;;;97.25;55.13;;;22.20;52.60;;;;;;4907051;28;96222;-40
2022/05/28 11:46:21;;;;;;;99.15;55.03;;;22.20;52.00;;;;;;4919603;28;94378;-41
2022/05/28 11:52:07;;;;;;;95.55;54.83;;;22.20;51.30;;;;;;4908644;28;99862;-41
2022/05/28 11:54:51;;;;;;;96.85;54.83;;;22.10;51.20;;;;;;4907188;28;98201;-41
2022/05/28 11:57:43;;;;;;;94.70;54.42;;;22.00;51.80;;;;;;4903486;28;95229;-40
2022/05/28 12:00:11;;;;;;;95.05;55.20;;;22.00;51.30;;;;;;4906907;28;95379;-41
2022/05/28 12:02:46;;;;;;;96.82;55.33;;;22.10;51.40;;;;;;4904358;28;100321;-44
2022/05/28 12:05:18;;;;;;;96.65;55.20;;;22.20;51.50;;;;;;4916255;28;95303;-40
2022/05/28 12:07:46;;;;;;;96.35;55.60;;;22.20;51.10;;;;;;4906001;28;95259;-40
2022/05/28 12:10:28;;;;;;;97.15;54.90;;;22.30;50.60;;;;;;4914027;28;95803;-41
2022/05/28 12:12:59;;;;;;;95.75;55.03;;;22.30;49.70;;;;;;4894683;28;94823;-41
2022/05/28 12:15:28;;;;;;;96.97;55.13;;;22.30;49.90;;;;;;4917176;28;96195;-41
2022/05/28 12:18:03;;;;;;;95.15;54.95;;;22.20;50.50;;;;;;4917162;28;100457;-40
2022/05/28 12:20:33;;;;;;;96.97;55.33;;;22.10;50.70;;;;;;4906356;28;96918;-40
2022/05/28 12:23:02;;;;;;;96.00;54.65;;;22.20;51.70;;;;;;4912511;28;95913;-40
2022/05/28 12:25:37;;;;;;;94.57;54.53;;;22.10;49.70;;;;;;4912357;28;95095;-40
2022/05/28 12:28:11;;;;;;;96.25;54.90;;;22.10;50.90;;;;;;4912099;28;94932;-40
2022/05/28 12:30:39;;;;;;;96.82;55.15;;;22.20;50.80;;;;;;4913610;28;98803;-41
2022/05/28 12:33:17;;;;;;;96.85;55.17;;;22.20;51.40;;;;;;4915387;28;96488;-40
2022/05/28 12:35:52;;;;;;;95.63;54.85;;;22.20;50.60;;;;;;4904834;28;99428;-40
2022/05/28 12:38:27;;;;;;;96.43;54.95;;;22.20;50.50;;;;;;4912276;28;94243;-40
2022/05/28 12:40:54;;;;;;;97.82;54.75;;;22.20;50.40;;;;;;4908013;28;96942;-41
2022/05/28 12:43:33;;;;;;;94.68;54.75;;;22.10;49.00;;;;;;4911219;28;95587;-41
2022/05/28 12:46:13;;;;;;;94.93;54.85;;;22.10;49.70;;;;;;4907818;28;97211;-41
2022/05/28 12:48:40;;;;;;;94.53;54.78;;;22.10;48.70;;;;;;4925139;28;96318;-43
2022/05/28 12:51:27;;;;;;;96.68;54.60;;;22.00;49.80;;;;;;4929028;28;95652;-40
2022/05/28 12:54:01;;;;;;;94.95;54.20;;;22.00;49.60;;;;;;4925179;28;95078;-42
2022/05/28 12:56:36;;;;;;;95.28;54.75;;;22.00;49.50;;;;;;4925215;28;94726;-40